createdAt,value
2022-10-03T00:00:09.391Z,95336.09
2022-10-03T00:02:58.286Z,95314.03
2022-10-03T00:05:43.217Z,95317.63
2022-10-03T00:08:21.721Z,95307.03
2022-10-03T00:11:04.071Z,95293.50
2022-10-03T00:13:43.329Z,95286.63
2022-10-03T00:16:20.088Z,95311.91
2022-10-03T00:19:00.256Z,95296.91
2022-10-03T00:21:41.187Z,95299.38
2022-10-03T00:24:24.949Z,95288.31
2022-10-03T00:26:57.619Z,95277.19
2022-10-03T00:29:43.271Z,95274.75
2022-10-03T00:32:35.780Z,95288.91
2022-10-03T00:35:21.933Z,95301.91
2022-10-03T00:38:05.925Z,95300.13
2022-10-03T00:41:15.900Z,95284.94
2022-10-03T00:44:30.027Z,95293.56
2022-10-03T00:47:29.621Z,95279.78
2022-10-03T00:50:24.069Z,95287.75
2022-10-03T00:53:10.943Z,95295.13
2022-10-03T00:55:56.948Z,95299.34
2022-10-03T00:58:39.871Z,95285.00
2022-10-03T01:01:24.792Z,95297.63
2022-10-03T01:04:03.741Z,95296.94
2022-10-03T01:06:42.291Z,95283.00
2022-10-03T01:09:34.987Z,95275.66
2022-10-03T01:12:29.788Z,95270.16
2022-10-03T01:15:11.492Z,95286.41
2022-10-03T01:17:51.535Z,95147.94
2022-10-03T01:20:31.955Z,95274.00
2022-10-03T01:23:46.908Z,95249.16
2022-10-03T01:26:34.166Z,95272.88
2022-10-03T01:29:25.317Z,95263.38
2022-10-03T01:32:00.527Z,95204.81
2022-10-03T01:34:35.559Z,95244.38
2022-10-03T01:37:11.582Z,95263.06
2022-10-03T01:39:48.836Z,95265.91
2022-10-03T01:42:21.595Z,95250.97
2022-10-03T01:45:10.380Z,95269.63
2022-10-03T01:47:47.472Z,95262.88
2022-10-03T01:50:25.493Z,95261.34
2022-10-03T01:52:59.953Z,95247.19
2022-10-03T01:55:36.573Z,95257.63
2022-10-03T01:58:09.670Z,95259.38
2022-10-03T02:00:48.530Z,95248.13
2022-10-03T02:03:24.002Z,95215.97
2022-10-03T02:05:59.421Z,95251.88
2022-10-03T02:08:36.563Z,95241.19
2022-10-03T02:11:08.374Z,95248.38
2022-10-03T02:13:44.304Z,95235.22
2022-10-03T02:16:22.796Z,95244.09
2022-10-03T02:18:54.864Z,95242.78
2022-10-03T02:21:25.082Z,95242.09
2022-10-03T02:24:10.141Z,95259.88
2022-10-03T02:27:21.018Z,95203.75
2022-10-03T02:30:15.500Z,95241.75
2022-10-03T02:33:22.273Z,95258.97
2022-10-03T02:36:32.390Z,95255.94
2022-10-03T02:39:18.953Z,95256.88
2022-10-03T02:42:27.916Z,95268.19
2022-10-03T02:45:40.716Z,95255.13
2022-10-03T02:48:49.796Z,95256.81
2022-10-03T02:52:00.620Z,95264.00
2022-10-03T02:55:00.165Z,95252.22
2022-10-03T02:58:02.200Z,95249.38
2022-10-03T03:00:42.763Z,95259.06
2022-10-03T03:03:48.344Z,95269.53
2022-10-03T03:06:34.478Z,95270.25
2022-10-03T03:09:38.139Z,95261.72
2022-10-03T03:12:41.199Z,95257.00
2022-10-03T03:16:05.443Z,95245.22
2022-10-03T03:18:38.167Z,95253.91
2022-10-03T03:21:22.303Z,95245.38
2022-10-03T03:24:22.113Z,95242.22
2022-10-03T03:27:04.210Z,95243.09
2022-10-03T03:29:43.964Z,95237.41
2022-10-03T03:32:21.451Z,95240.72
2022-10-03T03:35:00.515Z,95240.34
2022-10-03T03:37:36.020Z,95242.16
2022-10-03T03:40:20.892Z,95241.75
2022-10-03T03:43:14.613Z,95232.81
2022-10-03T03:45:51.576Z,95234.31
2022-10-03T03:48:38.436Z,95215.69
2022-10-03T03:51:23.130Z,95234.22
2022-10-03T03:54:28.674Z,95225.91
2022-10-03T03:57:16.743Z,95221.13
2022-10-03T04:00:07.120Z,95234.09
2022-10-03T04:03:16.559Z,95222.09
2022-10-03T04:06:04.052Z,95223.50
2022-10-03T04:08:48.302Z,95218.44
2022-10-03T04:11:31.747Z,95210.31
2022-10-03T04:14:15.739Z,95225.38
2022-10-03T04:17:23.647Z,95214.78
2022-10-03T04:20:05.618Z,95206.41
2022-10-03T04:22:50.508Z,95210.50
2022-10-03T04:25:32.149Z,95212.59
2022-10-03T04:28:18.905Z,95199.13
2022-10-03T04:31:02.521Z,95201.47
2022-10-03T04:33:44.306Z,95221.97
2022-10-03T04:36:43.867Z,95166.31
2022-10-03T04:39:24.627Z,95212.63
2022-10-03T04:42:00.017Z,95212.78
2022-10-03T04:44:42.201Z,95217.13
2022-10-03T04:47:32.176Z,95203.81
2022-10-03T04:50:13.543Z,95219.22
2022-10-03T04:53:01.209Z,95203.81
2022-10-03T04:55:59.749Z,95207.28
2022-10-03T04:59:17.434Z,95202.16
2022-10-03T05:02:27.037Z,95208.38
2022-10-03T05:05:16.376Z,95214.31
2022-10-03T05:07:53.367Z,95211.38
2022-10-03T05:10:35.891Z,95212.72
2022-10-03T05:13:11.679Z,95172.63
2022-10-03T05:15:48.574Z,95211.72
2022-10-03T05:18:26.818Z,95211.09
2022-10-03T05:20:59.085Z,95211.09
2022-10-03T05:23:45.053Z,95217.66
2022-10-03T05:26:44.066Z,95212.47
2022-10-03T05:29:20.694Z,95206.63
2022-10-03T05:31:57.230Z,95216.66
2022-10-03T05:34:36.539Z,95194.94
2022-10-03T05:37:28.918Z,95191.78
2022-10-03T05:40:00.014Z,95188.06
2022-10-03T05:42:43.603Z,95183.50
2022-10-03T05:45:26.142Z,95143.31
2022-10-03T05:48:08.833Z,95161.88
2022-10-03T05:50:58.369Z,95191.47
2022-10-03T05:53:53.077Z,95179.19
2022-10-03T05:56:40.770Z,95195.03
2022-10-03T05:59:37.299Z,95205.66
2022-10-03T06:02:49.843Z,95201.44
2022-10-03T06:05:30.597Z,95192.34
2022-10-03T06:08:35.365Z,95197.00
2022-10-03T06:11:20.941Z,95199.28
2022-10-03T06:14:17.301Z,95189.38
2022-10-03T06:16:56.840Z,95189.81
2022-10-03T06:19:40.325Z,95220.53
2022-10-03T06:22:43.238Z,95195.66
2022-10-03T06:25:47.284Z,95215.75
2022-10-03T06:28:52.096Z,95213.13
2022-10-03T06:31:57.500Z,95206.69
2022-10-03T06:34:51.705Z,95206.53
2022-10-03T06:37:50.200Z,95214.50
2022-10-03T06:40:54.038Z,95217.91
2022-10-03T06:43:57.197Z,95231.81
2022-10-03T06:46:57.095Z,95224.06
2022-10-03T06:49:37.134Z,95229.31
2022-10-03T06:52:39.380Z,95232.44
2022-10-03T06:55:44.769Z,95228.53
2022-10-03T06:59:05.568Z,95242.59
2022-10-03T07:02:06.611Z,95252.88
2022-10-03T07:05:20.532Z,95227.72
2022-10-03T07:08:25.803Z,95257.88
2022-10-03T07:11:08.554Z,95260.91
2022-10-03T07:14:16.276Z,95273.72
2022-10-03T07:17:11.535Z,95233.19
2022-10-03T07:20:01.099Z,95280.91
2022-10-03T07:23:14.587Z,95268.38
2022-10-03T07:26:15.738Z,95301.88
2022-10-03T07:29:06.853Z,95309.59
2022-10-03T07:31:45.873Z,95306.44
2022-10-03T07:34:52.987Z,95311.84
2022-10-03T07:37:49.719Z,95311.25
2022-10-03T07:40:41.302Z,95319.63
2022-10-03T07:43:40.238Z,95260.00
2022-10-03T07:46:37.253Z,95312.88
2022-10-03T07:49:32.173Z,95308.13
2022-10-03T07:52:29.995Z,95324.09
2022-10-03T07:55:24.182Z,95325.66
2022-10-03T07:58:29.804Z,95321.91
2022-10-03T08:01:25.915Z,95319.97
2022-10-03T08:04:23.795Z,95296.56
2022-10-03T08:07:05.520Z,95319.69
2022-10-03T08:09:59.796Z,95319.19
2022-10-03T08:13:07.981Z,95305.91
2022-10-03T08:15:53.229Z,95324.00
2022-10-03T08:19:02.104Z,95229.72
2022-10-03T08:21:39.255Z,95294.22
2022-10-03T08:24:22.296Z,95325.94
2022-10-03T08:27:10.151Z,95328.72
2022-10-03T08:30:04.905Z,95335.13
2022-10-03T08:33:01.441Z,95340.41
2022-10-03T08:36:07.916Z,95340.22
2022-10-03T08:39:12.765Z,95299.59
2022-10-03T08:42:27.980Z,95338.03
2022-10-03T08:45:27.849Z,95344.75
2022-10-03T08:48:34.445Z,95345.72
2022-10-03T08:51:19.693Z,95188.03
2022-10-03T08:54:17.232Z,95346.53
2022-10-03T08:56:57.853Z,95302.59
2022-10-03T09:00:08.060Z,95333.56
2022-10-03T09:03:32.616Z,95330.84
2022-10-03T09:06:33.235Z,95327.09
2022-10-03T09:09:12.856Z,95331.53
2022-10-03T09:12:13.200Z,95352.78
2022-10-03T09:15:03.193Z,95356.28
2022-10-03T09:18:06.922Z,95357.09
2022-10-03T09:21:07.051Z,95335.81
2022-10-03T09:24:01.539Z,95348.72
2022-10-03T09:27:04.549Z,95359.66
2022-10-03T09:30:10.770Z,95323.97
2022-10-03T09:33:23.734Z,95346.63
2022-10-03T09:36:28.285Z,95343.84
2022-10-03T09:39:50.166Z,95323.69
2022-10-03T09:42:44.096Z,95316.94
2022-10-03T09:45:22.777Z,95311.78
2022-10-03T09:48:13.956Z,95314.22
2022-10-03T09:51:07.298Z,95327.81
2022-10-03T09:54:03.786Z,95325.44
2022-10-03T09:56:58.551Z,95334.41
2022-10-03T09:59:51.793Z,95215.84
2022-10-03T10:02:47.014Z,95308.69
2022-10-03T10:05:46.346Z,95316.66
2022-10-03T10:08:48.561Z,95318.53
2022-10-03T10:11:35.182Z,95312.41
2022-10-03T10:14:24.923Z,95289.75
2022-10-03T10:17:30.166Z,95303.22
2022-10-03T10:20:12.724Z,95304.28
2022-10-03T10:23:15.896Z,95312.63
2022-10-03T10:26:29.547Z,95308.59
2022-10-03T10:29:18.067Z,95304.91
2022-10-03T10:32:23.286Z,95311.91
2022-10-03T10:35:32.539Z,95321.19
2022-10-03T10:38:39.303Z,95304.94
2022-10-03T10:42:00.369Z,95300.00
2022-10-03T10:45:04.291Z,95317.69
2022-10-03T10:48:11.526Z,95317.63
2022-10-03T10:51:27.747Z,95317.03
2022-10-03T10:54:24.979Z,95266.81
2022-10-03T10:57:22.602Z,95284.88
2022-10-03T11:00:22.648Z,95312.56
2022-10-03T11:03:44.182Z,95240.66
2022-10-03T11:06:43.801Z,95303.72
2022-10-03T11:09:31.828Z,95308.72
2022-10-03T11:12:41.147Z,95315.66
2022-10-03T11:15:37.470Z,95264.59
2022-10-03T11:18:34.853Z,95265.81
2022-10-03T11:21:33.725Z,95309.50
2022-10-03T11:24:20.287Z,95293.97
2022-10-03T11:27:28.061Z,95308.69
2022-10-03T11:30:23.011Z,95302.41
2022-10-03T11:33:42.656Z,95311.34
2022-10-03T11:36:50.159Z,95194.81
2022-10-03T11:39:28.649Z,95313.81
2022-10-03T11:42:05.527Z,95322.75
2022-10-03T11:44:36.178Z,95299.50
2022-10-03T11:47:20.284Z,95293.50
2022-10-03T11:50:11.295Z,95301.47
2022-10-03T11:52:49.744Z,95303.06
2022-10-03T11:55:31.622Z,95298.13
2022-10-03T11:58:16.361Z,95312.69
2022-10-03T12:00:48.183Z,95279.44
2022-10-03T12:03:26.927Z,95289.09
2022-10-03T12:06:21.509Z,95243.72
2022-10-03T12:09:01.319Z,95289.31
2022-10-03T12:11:35.305Z,95288.94
2022-10-03T12:14:25.606Z,95278.66
2022-10-03T12:17:06.911Z,95256.13
2022-10-03T12:19:39.736Z,95282.88
2022-10-03T12:22:24.475Z,95273.53
2022-10-03T12:24:58.990Z,95275.53
2022-10-03T12:27:44.344Z,95257.97
2022-10-03T12:30:16.980Z,95236.81
2022-10-03T12:32:59.890Z,95265.63
2022-10-03T12:35:42.431Z,95263.78
2022-10-03T12:38:28.363Z,95265.72
2022-10-03T12:41:06.928Z,95267.66
2022-10-03T12:43:50.292Z,95275.50
2022-10-03T12:46:28.036Z,95203.81
2022-10-03T12:49:03.424Z,95271.19
2022-10-03T12:51:48.890Z,95282.56
2022-10-03T12:54:41.055Z,95284.41
2022-10-03T12:57:36.333Z,95228.19
2022-10-03T13:00:08.760Z,95229.41
2022-10-03T13:02:41.568Z,95241.91
2022-10-03T13:05:30.499Z,95282.63
2022-10-03T13:08:06.780Z,95296.47
2022-10-03T13:10:41.900Z,95287.50
2022-10-03T13:13:30.170Z,95289.16
2022-10-03T13:16:18.469Z,95283.31
2022-10-03T13:18:52.838Z,95285.16
2022-10-03T13:21:45.051Z,95277.84
2022-10-03T13:24:22.682Z,95287.81
2022-10-03T13:26:59.814Z,95282.41
2022-10-03T13:29:31.913Z,95281.88
2022-10-03T13:32:16.222Z,95281.88
2022-10-03T13:35:33.074Z,95288.66
2022-10-03T13:38:26.476Z,95256.28
2022-10-03T13:41:03.340Z,95245.50
2022-10-03T13:43:37.838Z,95286.19
2022-10-03T13:46:14.229Z,95293.47
2022-10-03T13:48:50.139Z,95270.22
2022-10-03T13:51:30.260Z,95289.06
2022-10-03T13:54:03.821Z,95282.03
2022-10-03T13:56:46.129Z,95276.91
2022-10-03T13:59:32.603Z,95229.00
2022-10-03T14:02:16.676Z,95235.50
2022-10-03T14:05:07.426Z,95253.84
2022-10-03T14:07:46.984Z,95282.50
2022-10-03T14:10:27.204Z,95268.41
2022-10-03T14:13:10.728Z,95257.78
2022-10-03T14:15:48.417Z,95268.03
2022-10-03T14:18:37.359Z,95270.25
2022-10-03T14:21:46.957Z,95279.25
2022-10-03T14:24:27.394Z,95282.28
2022-10-03T14:27:02.890Z,95282.25
2022-10-03T14:29:39.734Z,95245.94
2022-10-03T14:32:45.734Z,95289.09
2022-10-03T14:35:17.563Z,95277.03
2022-10-03T14:37:53.620Z,95289.16
2022-10-03T14:40:28.372Z,95297.28
2022-10-03T14:43:06.928Z,95288.59
2022-10-03T14:45:42.299Z,95303.94
2022-10-03T14:48:18.209Z,95305.41
2022-10-03T14:50:49.370Z,95300.56
2022-10-03T14:53:21.444Z,95155.38
2022-10-03T14:56:00.420Z,95272.19
2022-10-03T14:58:32.683Z,95306.47
2022-10-03T15:01:10.761Z,95302.50
2022-10-03T15:03:41.379Z,95242.16
2022-10-03T15:06:34.332Z,95304.16
2022-10-03T15:09:09.796Z,95303.38
2022-10-03T15:11:48.055Z,95309.53
2022-10-03T15:14:16.364Z,95294.94
2022-10-03T15:16:48.558Z,95314.84
2022-10-03T15:19:19.839Z,95328.09
2022-10-03T15:21:49.955Z,95335.84
2022-10-03T15:24:25.571Z,95320.19
2022-10-03T15:27:02.599Z,95330.34
2022-10-03T15:29:32.328Z,95271.41
2022-10-03T15:32:01.113Z,95314.34
2022-10-03T15:34:33.135Z,95321.56
2022-10-03T15:37:08.077Z,95317.09
2022-10-03T15:39:42.039Z,95303.59
2022-10-03T15:42:22.972Z,95325.53
2022-10-03T15:44:54.495Z,95329.22
2022-10-03T15:47:24.600Z,95337.66
2022-10-03T15:49:57.116Z,95321.66
2022-10-03T15:52:32.595Z,95340.88
2022-10-03T15:55:12.640Z,95325.75
2022-10-03T15:57:46.359Z,95332.41
2022-10-03T16:00:24.699Z,95345.53
2022-10-03T16:02:59.862Z,95343.81
2022-10-03T16:05:28.787Z,95357.72
2022-10-03T16:08:02.583Z,95387.38
2022-10-03T16:10:37.904Z,95355.72
2022-10-03T16:13:26.612Z,95374.97
2022-10-03T16:16:09.131Z,95378.81
2022-10-03T16:19:07.961Z,95390.44
2022-10-03T16:21:46.609Z,95388.16
2022-10-03T16:24:24.956Z,95403.28
2022-10-03T16:26:57.991Z,95379.69
2022-10-03T16:29:32.594Z,95406.47
2022-10-03T16:32:06.135Z,95342.31
2022-10-03T16:34:37.161Z,95401.72
2022-10-03T16:37:16.287Z,95392.63
2022-10-03T16:39:51.701Z,95415.53
2022-10-03T16:42:26.478Z,95421.66
2022-10-03T16:44:58.250Z,95419.91
2022-10-03T16:47:37.092Z,95409.56
2022-10-03T16:50:25.279Z,95414.19
2022-10-03T16:52:58.711Z,95421.28
2022-10-03T16:55:32.406Z,95431.16
2022-10-03T16:58:12.379Z,95422.50
2022-10-03T17:01:03.926Z,95442.09
2022-10-03T17:03:45.168Z,95443.03
2022-10-03T17:06:22.240Z,95446.53
2022-10-03T17:08:53.352Z,95411.47
2022-10-03T17:11:26.252Z,95318.88
2022-10-03T17:13:59.304Z,95432.84
2022-10-03T17:16:37.451Z,95431.94
2022-10-03T17:19:22.160Z,95443.59
2022-10-03T17:21:54.919Z,95450.47
2022-10-03T17:24:34.341Z,95448.66
2022-10-03T17:27:09.467Z,95453.63
2022-10-03T17:29:47.973Z,95312.16
2022-10-03T17:32:22.646Z,95448.81
2022-10-03T17:34:55.787Z,95452.13
2022-10-03T17:37:47.296Z,95450.09
2022-10-03T17:40:23.414Z,95450.34
2022-10-03T17:42:57.487Z,95409.41
2022-10-03T17:45:34.478Z,95442.50
2022-10-03T17:48:13.046Z,95440.75
2022-10-03T17:50:54.432Z,95418.66
2022-10-03T17:53:27.344Z,95446.84
2022-10-03T17:55:58.245Z,95445.97
2022-10-03T17:58:29.709Z,95296.88
2022-10-03T18:01:07.344Z,95436.16
2022-10-03T18:03:42.152Z,95458.94
2022-10-03T18:06:44.322Z,95461.06
2022-10-03T18:09:32.568Z,95458.59
2022-10-03T18:12:16.396Z,95433.38
2022-10-03T18:15:05.436Z,95458.97
2022-10-03T18:17:46.445Z,95453.47
2022-10-03T18:20:33.219Z,95427.44
2022-10-03T18:23:08.520Z,95449.63
2022-10-03T18:26:20.725Z,95447.63
2022-10-03T18:28:58.768Z,95481.44
2022-10-03T18:31:31.032Z,95460.69
2022-10-03T18:34:03.924Z,95471.84
2022-10-03T18:36:35.864Z,95458.53
2022-10-03T18:39:11.731Z,95476.59
2022-10-03T18:41:46.600Z,95469.00
2022-10-03T18:44:18.089Z,95471.69
2022-10-03T18:46:50.671Z,95467.22
2022-10-03T18:49:34.349Z,95464.97
2022-10-03T18:52:10.721Z,95482.09
2022-10-03T18:54:50.796Z,95480.53
2022-10-03T18:57:24.293Z,95472.50
2022-10-03T18:59:57.506Z,95479.50
2022-10-03T19:02:35.086Z,95468.00
2022-10-03T19:05:13.149Z,95476.47
2022-10-03T19:07:49.402Z,95478.63
2022-10-03T19:10:37.816Z,95483.91
2022-10-03T19:13:16.331Z,95485.38
2022-10-03T19:16:31.867Z,95482.44
2022-10-03T19:19:08.856Z,95466.44
2022-10-03T19:21:41.207Z,95484.13
2022-10-03T19:24:14.863Z,95477.63
2022-10-03T19:26:47.308Z,95467.00
2022-10-03T19:29:20.444Z,95485.06
2022-10-03T19:31:58.767Z,95492.38
2022-10-03T19:34:35.147Z,95484.81
2022-10-03T19:37:09.203Z,95489.31
2022-10-03T19:39:39.685Z,95494.06
2022-10-03T19:42:25.366Z,95474.09
2022-10-03T19:44:57.172Z,95472.28
2022-10-03T19:47:31.684Z,95452.59
2022-10-03T19:50:08.582Z,95487.75
2022-10-03T19:52:41.726Z,95488.53
2022-10-03T19:55:16.020Z,95491.94
2022-10-03T19:57:48.883Z,95497.56
2022-10-03T20:00:27.019Z,95476.34
2022-10-03T20:02:58.067Z,95495.16
2022-10-03T20:05:32.939Z,95495.41
2022-10-03T20:08:11.584Z,95496.41
2022-10-03T20:10:57.557Z,95494.72
2022-10-03T20:13:25.495Z,95499.34
2022-10-03T20:15:56.993Z,95498.97
2022-10-03T20:18:27.709Z,95498.59
2022-10-03T20:20:57.749Z,95511.25
2022-10-03T20:23:30.170Z,95514.97
2022-10-03T20:26:03.925Z,95514.97
2022-10-03T20:28:46.921Z,95511.34
2022-10-03T20:31:22.781Z,95505.16
2022-10-03T20:33:52.032Z,95515.63
2022-10-03T20:36:24.141Z,95500.75
2022-10-03T20:39:05.939Z,95454.88
2022-10-03T20:41:41.855Z,95515.94
2022-10-03T20:44:17.876Z,95518.19
2022-10-03T20:46:49.141Z,95514.50
2022-10-03T20:49:28.092Z,95519.22
2022-10-03T20:52:01.822Z,95528.59
2022-10-03T20:54:37.019Z,95514.00
2022-10-03T20:57:13.802Z,95529.91
2022-10-03T20:59:47.431Z,95508.44
2022-10-03T21:02:23.598Z,95538.22
2022-10-03T21:04:56.152Z,95535.72
2022-10-03T21:07:32.594Z,95496.63
2022-10-03T21:10:09.313Z,95545.59
2022-10-03T21:12:43.284Z,95529.47
2022-10-03T21:15:18.759Z,95553.91
2022-10-03T21:17:47.689Z,95559.50
2022-10-03T21:20:20.041Z,95560.34
2022-10-03T21:22:51.588Z,95559.69
2022-10-03T21:25:26.923Z,95532.56
2022-10-03T21:27:57.291Z,95564.31
2022-10-03T21:30:46.483Z,95394.47
2022-10-03T21:33:20.930Z,95559.88
2022-10-03T21:35:51.416Z,95509.91
2022-10-03T21:38:26.796Z,95548.97
2022-10-03T21:41:24.329Z,95550.41
2022-10-03T21:43:55.593Z,95561.69
2022-10-03T21:46:35.593Z,95551.72
2022-10-03T21:49:23.174Z,95556.00
2022-10-03T21:52:26.686Z,95543.81
2022-10-03T21:55:07.293Z,95548.91
2022-10-03T21:57:48.386Z,95549.81
2022-10-03T22:00:18.205Z,95556.00
2022-10-03T22:02:58.197Z,95551.41
2022-10-03T22:05:37.338Z,95539.53
2022-10-03T22:08:15.207Z,95552.47
2022-10-03T22:10:55.988Z,95550.34
2022-10-03T22:13:29.956Z,95560.03
2022-10-03T22:16:05.265Z,95550.50
2022-10-03T22:18:43.153Z,95526.78
2022-10-03T22:21:24.797Z,95523.88
2022-10-03T22:24:00.555Z,95488.78
2022-10-03T22:26:36.527Z,95541.72
2022-10-03T22:29:13.405Z,95534.41
2022-10-03T22:31:50.128Z,95535.19
2022-10-03T22:34:32.851Z,95534.75
2022-10-03T22:37:01.341Z,95527.94
2022-10-03T22:39:30.644Z,95511.47
2022-10-03T22:42:01.931Z,95540.75
2022-10-03T22:44:33.562Z,95540.53
2022-10-03T22:47:06.168Z,95530.91
2022-10-03T22:49:38.262Z,95524.06
2022-10-03T22:52:09.306Z,95532.09
2022-10-03T22:54:40.606Z,95539.06
2022-10-03T22:57:10.335Z,95504.31
2022-10-03T22:59:46.517Z,95540.66
2022-10-03T23:02:14.872Z,95547.84
2022-10-03T23:04:48.671Z,95546.72
2022-10-03T23:07:30.883Z,95543.38
2022-10-03T23:10:09.877Z,95539.66
2022-10-03T23:12:43.843Z,95541.00
2022-10-03T23:15:17.673Z,95532.94
2022-10-03T23:18:04.523Z,95545.16
2022-10-03T23:21:00.659Z,95533.75
2022-10-03T23:23:38.344Z,95533.34
2022-10-03T23:26:41.748Z,95521.34
2022-10-03T23:29:13.397Z,95536.25
2022-10-03T23:32:02.207Z,95506.09
2022-10-03T23:34:47.788Z,95540.19
2022-10-03T23:37:38.585Z,95529.41
2022-10-03T23:40:35.851Z,95519.34
2022-10-03T23:43:24.307Z,95524.53
2022-10-03T23:45:54.567Z,95531.16
2022-10-03T23:48:26.664Z,95530.72
2022-10-03T23:50:59.276Z,95488.72
2022-10-03T23:53:32.898Z,95533.16
2022-10-03T23:56:03.337Z,95497.53
2022-10-03T23:58:34.250Z,95531.53
